Time;durP1;ratioP1;P1;durP2;ratioP2;P2;SDS_P1;SDS_P2;PMS_P1;PMS_P2;Temp;Humidity;BMP_temperature;BMP_pressure;BME280_temperature;BME280_humidity;BME280_pressure;Samples;Min_cycle;Max_cycle;Signal;HPM_P1;HPM_P2
2021/01/27 00:01:55;;;;;;;16.13;9.45;;;;;;;-1.99;73.48;96773.88;5055617;28;20039;-73
2021/01/27 00:04:21;;;;;;;14.95;9.35;;;;;;;-2.01;73.40;96771.44;5093141;28;20040;-73
2021/01/27 00:06:47;;;;;;;14.07;9.20;;;;;;;-2.05;73.44;96765.72;5064994;28;20075;-73
2021/01/27 00:09:13;;;;;;;14.07;9.50;;;;;;;-2.06;73.51;96774.41;5087625;28;20056;-73
2021/01/27 00:11:40;;;;;;;14.40;9.15;;;;;;;-2.09;73.34;96769.50;5089754;28;20391;-73
2021/01/27 00:14:06;;;;;;;16.52;10.30;;;;;;;-2.11;73.70;96766.25;5082728;28;20043;-74
2021/01/27 00:16:32;;;;;;;15.15;9.77;;;;;;;-2.11;73.65;96750.03;5091900;28;20052;-74
2021/01/27 00:18:58;;;;;;;14.30;9.63;;;;;;;-2.13;73.62;96751.91;5092752;28;20051;-74
2021/01/27 00:21:25;;;;;;;15.18;9.48;;;;;;;-2.15;73.61;96756.38;5074647;28;20044;-73
2021/01/27 00:23:51;;;;;;;15.57;9.38;;;;;;;-2.17;73.84;96753.13;5092644;28;20044;-74
2021/01/27 00:26:17;;;;;;;11.63;8.30;;;;;;;-2.23;73.54;96745.94;5092373;28;20051;-74
2021/01/27 00:28:43;;;;;;;14.40;9.32;;;;;;;-2.26;73.82;96742.69;5092794;28;20052;-73
2021/01/27 00:31:09;;;;;;;14.65;8.57;;;;;;;-2.28;73.50;96739.44;5093602;28;20052;-74
2021/01/27 00:33:36;;;;;;;14.18;9.35;;;;;;;-2.27;73.73;96740.25;5093124;28;20381;-73
2021/01/27 00:36:02;;;;;;;19.40;9.60;;;;;;;-2.28;73.90;96742.00;5092114;28;20488;-73
2021/01/27 00:38:29;;;;;;;16.13;9.77;;;;;;;-2.27;73.89;96735.09;5091914;28;20511;-73
2021/01/27 00:40:57;;;;;;;16.70;10.38;;;;;;;-2.27;74.02;96740.25;5093215;28;20044;-73
2021/01/27 00:43:24;;;;;;;16.55;9.18;;;;;;;-2.26;74.36;96739.31;5092114;28;20424;-73
2021/01/27 00:45:51;;;;;;;15.02;9.07;;;;;;;-2.28;74.37;96734.28;5091636;28;20047;-73
2021/01/27 00:48:18;;;;;;;16.52;10.48;;;;;;;-2.28;74.26;96725.78;5092955;28;20480;-73
2021/01/27 00:50:45;;;;;;;14.43;9.65;;;;;;;-2.34;74.35;96727.09;5093170;28;20061;-73
2021/01/27 00:53:11;;;;;;;15.55;9.32;;;;;;;-2.36;74.45;96713.59;5092087;28;20044;-73
2021/01/27 00:55:38;;;;;;;14.75;9.50;;;;;;;-2.34;74.65;96718.59;5092785;28;20468;-73
2021/01/27 00:58:04;;;;;;;16.73;8.68;;;;;;;-2.31;75.04;96713.19;5092754;28;20043;-73
2021/01/27 01:00:35;;;;;;;14.10;9.10;;;;;;;-2.28;75.27;96713.75;5074670;28;20468;-74
2021/01/27 01:03:05;;;;;;;19.30;10.52;;;;;;;-2.25;74.91;96715.22;5093220;28;20036;-74
2021/01/27 01:05:34;;;;;;;14.48;9.75;;;;;;;-2.20;75.15;96710.53;5092738;28;20488;-73
2021/01/27 01:08:01;;;;;;;21.73;10.93;;;;;;;-2.19;75.07;96706.19;5082164;28;20384;-73
2021/01/27 01:10:43;;;;;;;15.15;9.32;;;;;;;-2.19;74.97;96706.19;5096860;28;20028;-73
2021/01/27 01:13:13;;;;;;;18.25;9.38;;;;;;;-2.20;74.77;96702.03;5080605;28;20377;-73
2021/01/27 01:15:40;;;;;;;17.52;9.15;;;;;;;-2.21;74.97;96714.03;5096885;28;20032;-73
2021/01/27 01:18:07;;;;;;;15.93;9.82;;;;;;;-2.22;74.84;96714.19;5095211;28;20069;-73
2021/01/27 01:20:33;;;;;;;17.05;9.15;;;;;;;-2.23;74.59;96702.25;5095968;28;20055;-73
2021/01/27 01:23:01;;;;;;;14.38;9.52;;;;;;;-2.25;74.91;96692.13;5094670;28;20055;-74
2021/01/27 01:25:31;;;;;;;18.85;9.57;;;;;;;-2.23;74.99;96692.78;5028565;22;20050;-73
2021/01/27 01:27:57;;;;;;;13.60;8.57;;;;;;;-2.23;74.94;96689.41;5006283;28;20403;-73
2021/01/27 01:30:34;;;;;;;13.10;8.80;;;;;;;-2.22;75.55;96694.44;5010342;28;20060;-73
2021/01/27 01:33:16;;;;;;;13.85;8.93;;;;;;;-2.21;75.41;96692.66;5004916;28;20042;-73
2021/01/27 01:35:43;;;;;;;13.63;9.50;;;;;;;-2.22;75.10;96688.50;5010020;28;20057;-73
2021/01/27 01:38:10;;;;;;;17.10;9.20;;;;;;;-2.22;75.13;96679.03;5002570;28;20038;-73
2021/01/27 01:40:40;;;;;;;17.05;9.63;;;;;;;-2.23;74.94;96674.00;5004233;28;20050;-73
2021/01/27 01:43:11;;;;;;;13.95;9.20;;;;;;;-2.23;75.18;96679.16;5004825;28;20059;-73
2021/01/27 01:45:43;;;;;;;14.13;8.55;;;;;;;-2.25;75.24;96689.53;5004831;28;20038;-73
2021/01/27 01:48:28;;;;;;;18.52;9.02;;;;;;;-2.24;75.75;96680.91;5008124;28;20052;-73
2021/01/27 01:50:59;;;;;;;14.05;8.75;;;;;;;-2.23;75.49;96674.00;5006508;28;20033;-73
2021/01/27 01:53:26;;;;;;;13.45;8.93;;;;;;;-2.23;75.39;96659.41;4999968;28;20042;-73
2021/01/27 01:55:55;;;;;;;15.90;9.25;;;;;;;-2.23;75.48;96651.69;5004459;28;20058;-74
2021/01/27 01:58:22;;;;;;;15.18;8.90;;;;;;;-2.22;75.54;96657.66;4983575;28;20049;-73
2021/01/27 02:00:53;;;;;;;20.90;10.32;;;;;;;-2.23;75.59;96656.81;5008298;28;20042;-73
2021/01/27 02:03:20;;;;;;;15.80;9.18;;;;;;;-2.24;75.48;96652.66;5012101;28;20049;-73
2021/01/27 02:05:46;;;;;;;17.45;10.55;;;;;;;-2.27;75.28;96653.72;5005335;28;20042;-73
2021/01/27 02:08:13;;;;;;;17.58;10.40;;;;;;;-2.30;75.68;96645.47;5005449;28;20045;-73
2021/01/27 02:10:39;;;;;;;14.65;9.63;;;;;;;-2.33;75.71;96638.84;5004733;28;20042;-73
2021/01/27 02:13:42;;;;;;;17.13;9.57;;;;;;;-2.34;75.91;96641.53;5010819;28;20042;-73
2021/01/27 02:16:18;;;;;;;15.00;9.40;;;;;;;-2.37;75.58;96632.34;5011510;28;20045;-73
2021/01/27 02:18:57;;;;;;;13.23;8.73;;;;;;;-2.38;75.25;96625.56;5006846;28;20026;-73
2021/01/27 02:21:58;;;;;;;13.45;9.43;;;;;;;-2.40;75.92;96619.75;5004179;28;20398;-73
2021/01/27 02:24:50;;;;;;;14.18;9.05;;;;;;;-2.40;75.40;96618.97;4962630;28;20049;-73
2021/01/27 02:27:31;;;;;;;15.60;8.60;;;;;;;-2.42;75.67;96615.72;5017214;28;20046;-73
2021/01/27 02:30:34;;;;;;;13.95;8.20;;;;;;;-2.43;75.78;96609.75;5022038;28;20057;-73
2021/01/27 02:33:33;;;;;;;14.27;8.93;;;;;;;-2.46;75.58;96612.59;5017139;28;20402;-73
2021/01/27 02:36:20;;;;;;;14.32;8.73;;;;;;;-2.48;76.46;96615.31;5028458;28;20034;-73
2021/01/27 02:38:49;;;;;;;15.25;8.98;;;;;;;-2.49;75.62;96605.16;5026865;28;20033;-73
2021/01/27 02:41:24;;;;;;;18.42;9.10;;;;;;;-2.49;75.79;96612.84;5023594;28;20504;-74
2021/01/27 02:43:57;;;;;;;13.85;8.70;;;;;;;-2.49;75.80;96615.44;5023395;28;20049;-73
2021/01/27 02:46:56;;;;;;;12.00;7.97;;;;;;;-2.50;75.82;96617.19;5022446;28;20475;-73
2021/01/27 02:49:56;;;;;;;13.13;7.85;;;;;;;-2.51;75.84;96619.88;5017795;28;20046;-73
2021/01/27 02:52:46;;;;;;;14.43;8.50;;;;;;;-2.51;76.02;96610.41;5005356;28;20042;-73
2021/01/27 02:55:33;;;;;;;12.88;8.80;;;;;;;-2.49;76.33;96607.72;5004197;28;20414;-73
2021/01/27 02:58:10;;;;;;;11.63;7.97;;;;;;;-2.50;76.02;96609.50;5013769;28;20045;-73
2021/01/27 03:00:41;;;;;;;13.13;9.02;;;;;;;-2.50;75.63;96622.31;5010665;28;20517;-73
2021/01/27 03:03:22;;;;;;;14.48;8.65;;;;;;;-2.51;76.05;96601.91;5023914;28;20037;-73
2021/01/27 03:05:59;;;;;;;17.05;8.75;;;;;;;-2.53;75.71;96603.78;5020630;28;20042;-73
2021/01/27 03:08:29;;;;;;;17.30;9.32;;;;;;;-2.55;75.78;96605.69;5022098;28;20042;-73
2021/01/27 03:11:11;;;;;;;14.13;8.27;;;;;;;-2.54;76.21;96605.56;5013633;28;20037;-73
2021/01/27 03:13:39;;;;;;;12.57;8.35;;;;;;;-2.55;76.09;96596.22;5016236;28;20045;-73
2021/01/27 03:16:11;;;;;;;13.20;9.15;;;;;;;-2.53;76.08;96607.16;5007286;28;20037;-73
2021/01/27 03:18:41;;;;;;;13.95;8.82;;;;;;;-2.54;76.41;96599.59;5023105;28;20044;-73
2021/01/27 03:21:14;;;;;;;15.45;9.57;;;;;;;-2.52;76.14;96597.69;5029442;28;20049;-75
2021/01/27 03:23:57;;;;;;;14.55;8.85;;;;;;;-2.48;76.85;96604.19;5025001;28;20054;-73
2021/01/27 03:26:51;;;;;;;15.85;9.65;;;;;;;-2.48;76.92;96597.31;4971057;28;20043;-73
2021/01/27 03:29:32;;;;;;;13.57;8.82;;;;;;;-2.46;77.08;96595.44;4980220;28;20053;-73
2021/01/27 03:32:02;;;;;;;14.27;9.13;;;;;;;-2.43;76.55;96594.34;4982632;28;20384;-73
2021/01/27 03:34:55;;;;;;;13.80;8.55;;;;;;;-2.39;77.17;96590.59;4985661;28;20035;-73
2021/01/27 03:37:57;;;;;;;14.02;8.40;;;;;;;-2.37;77.52;96588.69;4990481;28;20510;-73
2021/01/27 03:40:25;;;;;;;13.27;8.07;;;;;;;-2.35;76.64;96588.53;4972782;28;20042;-73
2021/01/27 03:43:16;;;;;;;15.82;8.57;;;;;;;-2.32;77.40;96591.66;4976082;28;20063;-73
2021/01/27 03:45:53;;;;;;;14.23;9.02;;;;;;;-2.34;76.83;96580.69;4985117;28;20031;-73
2021/01/27 03:48:29;;;;;;;18.17;11.40;;;;;;;-2.37;77.33;96583.56;4989102;28;20034;-73
2021/01/27 03:50:59;;;;;;;57.95;34.80;;;;;;;-2.39;77.30;96577.75;4984673;28;20046;-73
2021/01/27 03:53:26;;;;;;;18.30;12.27;;;;;;;-2.38;76.95;96581.91;4987610;28;20043;-73
2021/01/27 03:55:58;;;;;;;18.77;12.23;;;;;;;-2.35;76.88;96583.41;4987120;28;20061;-73
2021/01/27 03:58:32;;;;;;;15.30;11.48;;;;;;;-2.32;77.49;96571.09;4985772;28;20043;-73
2021/01/27 04:01:08;;;;;;;22.95;12.10;;;;;;;-2.28;77.64;96561.38;4984240;28;20437;-73
2021/01/27 04:03:35;;;;;;;12.18;7.78;;;;;;;-2.25;77.25;96556.81;4980089;28;20411;-73
2021/01/27 04:06:03;;;;;;;15.93;11.05;;;;;;;-2.20;77.17;96558.16;4987225;28;20030;-73
2021/01/27 04:08:30;;;;;;;20.13;11.05;;;;;;;-2.20;76.97;96553.81;4989307;28;20050;-73
2021/01/27 04:10:59;;;;;;;34.03;18.33;;;;;;;-2.19;77.20;96555.44;4981019;28;20483;-73
2021/01/27 04:13:27;;;;;;;17.38;11.45;;;;;;;-2.17;77.24;96556.09;4983089;28;20062;-73
2021/01/27 04:15:53;;;;;;;18.35;10.38;;;;;;;-2.18;77.30;96539.09;4987150;28;20043;-73
2021/01/27 04:18:19;;;;;;;34.70;19.58;;;;;;;-2.19;77.09;96540.00;4984315;28;20038;-73
2021/01/27 04:20:45;;;;;;;40.53;25.05;;;;;;;-2.18;77.11;96541.66;4979425;28;20050;-73
2021/01/27 04:23:12;;;;;;;14.50;10.50;;;;;;;-2.17;77.21;96545.03;4985040;28;20055;-73
2021/01/27 04:25:39;;;;;;;27.65;16.17;;;;;;;-2.19;77.25;96534.88;5013628;28;20062;-73
2021/01/27 04:28:05;;;;;;;25.08;14.10;;;;;;;-2.18;77.56;96522.84;5023655;28;20429;-73
2021/01/27 04:30:33;;;;;;;24.17;12.27;;;;;;;-2.17;77.17;96516.75;5015717;28;20498;-73
2021/01/27 04:33:01;;;;;;;23.80;15.82;;;;;;;-2.18;77.53;96512.56;5019572;28;20513;-73
2021/01/27 04:35:28;;;;;;;17.70;11.82;;;;;;;-2.17;77.60;96501.34;5010244;28;20046;-73
2021/01/27 04:37:54;;;;;;;16.92;10.77;;;;;;;-2.19;77.56;96498.91;4990446;28;20050;-73
2021/01/27 04:40:50;;;;;;;13.55;9.02;;;;;;;-2.17;77.55;96486.72;5020585;28;20382;-73
2021/01/27 04:43:16;;;;;;;10.98;7.20;;;;;;;-2.15;77.64;96489.97;5000426;28;20049;-74
2021/01/27 04:45:47;;;;;;;12.05;7.78;;;;;;;-2.15;77.73;96484.84;5028156;28;20479;-73
2021/01/27 04:48:27;;;;;;;12.15;7.30;;;;;;;-2.13;77.89;96482.94;5030258;28;20053;-73
2021/01/27 04:51:01;;;;;;;11.70;6.82;;;;;;;-2.13;77.56;96482.94;5028447;28;20052;-73
2021/01/27 04:53:54;;;;;;;10.45;7.10;;;;;;;-2.12;78.14;96481.19;5026768;28;20041;-73
2021/01/27 04:56:42;;;;;;;12.40;6.10;;;;;;;-2.11;77.81;96469.97;5015512;28;20397;-73
2021/01/27 04:59:34;;;;;;;11.15;6.65;;;;;;;-2.13;77.45;96484.72;5012471;28;20497;-73
2021/01/27 05:02:39;;;;;;;13.15;6.80;;;;;;;-2.10;78.39;96481.84;5011807;28;20052;-73
2021/01/27 05:05:13;;;;;;;13.13;7.03;;;;;;;-2.07;77.83;96492.69;4984644;28;20034;-73
2021/01/27 05:08:07;;;;;;;13.18;6.35;;;;;;;-2.03;77.75;96493.22;5025457;28;20042;-73
2021/01/27 05:11:07;;;;;;;13.50;6.97;;;;;;;-2.05;77.97;96469.41;5031712;28;20054;-73
2021/01/27 05:13:37;;;;;;;12.68;7.55;;;;;;;-2.09;77.70;96462.94;5004099;28;20050;-73
2021/01/27 05:16:09;;;;;;;13.40;7.05;;;;;;;-2.14;77.72;96460.78;5029065;28;20041;-73
2021/01/27 05:18:36;;;;;;;12.70;6.93;;;;;;;-2.17;77.46;96458.47;5024831;28;20053;-73
2021/01/27 05:21:03;;;;;;;11.88;7.95;;;;;;;-2.15;77.61;96453.22;5026030;28;20053;-73
2021/01/27 05:23:29;;;;;;;11.68;7.28;;;;;;;-2.16;77.63;96443.88;5025204;28;20044;-73
2021/01/27 05:26:09;;;;;;;10.73;7.07;;;;;;;-2.19;77.99;96434.69;5027038;28;20482;-73
2021/01/27 05:28:42;;;;;;;10.02;7.32;;;;;;;-2.21;77.80;96440.91;5019675;28;20054;-73
2021/01/27 05:31:09;;;;;;;9.75;6.70;;;;;;;-2.24;77.96;96442.00;5020072;28;20042;-73
2021/01/27 05:33:51;;;;;;;11.57;6.85;;;;;;;-2.27;78.18;96430.25;5024601;28;20057;-73
2021/01/27 05:36:27;;;;;;;13.10;6.72;;;;;;;-2.23;78.24;96429.97;5009704;28;20049;-73
2021/01/27 05:39:14;;;;;;;10.55;6.15;;;;;;;-2.21;78.61;96426.31;5022024;28;20466;-73
2021/01/27 05:41:42;;;;;;;13.57;6.35;;;;;;;-2.21;78.14;96428.88;5018067;28;20041;-73
2021/01/27 05:44:13;;;;;;;11.25;6.65;;;;;;;-2.19;77.94;96424.41;5025059;28;20033;-73
2021/01/27 05:46:40;;;;;;;10.32;6.40;;;;;;;-2.16;78.14;96424.16;5025358;28;20044;-73
2021/01/27 05:49:28;;;;;;;9.93;5.93;;;;;;;-2.13;78.25;96438.47;5025901;28;20483;-73
2021/01/27 05:52:11;;;;;;;16.20;7.00;;;;;;;-2.07;78.71;96427.63;5026636;28;20046;-73
2021/01/27 05:54:37;;;;;;;9.82;6.32;;;;;;;-2.03;78.13;96421.28;5018516;28;20379;-73
2021/01/27 05:57:11;;;;;;;10.93;6.13;;;;;;;-2.05;77.94;96418.03;5026331;28;20057;-73
2021/01/27 05:59:37;;;;;;;11.77;6.53;;;;;;;-2.01;78.16;96431.41;5023504;28;20053;-73
2021/01/27 06:02:05;;;;;;;10.93;6.30;;;;;;;-1.99;78.04;96438.03;5020700;28;20046;-73
2021/01/27 06:04:39;;;;;;;10.02;6.15;;;;;;;-1.96;77.87;96434.38;5029044;28;20049;-73
2021/01/27 06:07:19;;;;;;;8.18;6.07;;;;;;;-1.95;77.65;96436.81;5025305;28;20049;-73
2021/01/27 06:09:50;;;;;;;8.23;5.70;;;;;;;-1.92;77.91;96439.09;5007112;28;20041;-73
2021/01/27 06:12:19;;;;;;;9.98;6.30;;;;;;;-1.89;77.67;96432.84;5026444;28;20038;-73
2021/01/27 06:15:07;;;;;;;8.63;5.85;;;;;;;-1.90;77.94;96411.47;5027274;28;20033;-74
2021/01/27 06:17:47;;;;;;;9.85;6.40;;;;;;;-1.91;78.03;96409.88;5025815;28;20049;-74
2021/01/27 06:20:16;;;;;;;7.65;6.18;;;;;;;-1.91;77.93;96420.16;5007987;28;20034;-74
2021/01/27 06:22:54;;;;;;;10.02;6.57;;;;;;;-1.89;78.13;96422.56;5025532;28;20033;-74
2021/01/27 06:25:37;;;;;;;8.07;5.80;;;;;;;-1.88;77.92;96422.44;5029387;28;20474;-74
2021/01/27 06:28:15;;;;;;;9.18;5.75;;;;;;;-1.85;77.72;96435.03;5024038;28;20405;-74
2021/01/27 06:31:19;;;;;;;9.50;5.72;;;;;;;-1.80;77.97;96437.16;5021667;28;20053;-74
2021/01/27 06:33:56;;;;;;;11.10;5.68;;;;;;;-1.76;78.03;96430.00;5011137;28;20382;-74
2021/01/27 06:36:45;;;;;;;10.95;6.35;;;;;;;-1.77;77.48;96434.28;5003864;28;20033;-74
2021/01/27 06:39:46;;;;;;;10.05;5.57;;;;;;;-1.75;77.82;96426.44;5019812;28;20038;-74
2021/01/27 06:42:22;;;;;;;8.50;5.75;;;;;;;-1.75;77.98;96429.81;5022370;28;20042;-74
2021/01/27 06:44:59;;;;;;;11.15;6.15;;;;;;;-1.73;77.75;96430.50;5015682;28;20048;-74
2021/01/27 06:48:09;;;;;;;10.65;6.28;;;;;;;-1.69;77.95;96424.13;5025352;28;20116;-74
2021/01/27 06:50:47;;;;;;;10.27;5.95;;;;;;;-1.69;77.51;96415.59;5011797;28;20482;-73
2021/01/27 06:53:45;;;;;;;13.02;6.32;;;;;;;-1.69;77.32;96407.88;5021384;28;20394;-75
2021/01/27 06:56:24;;;;;;;12.00;5.88;;;;;;;-1.67;77.74;96413.69;4979667;28;20048;-74
2021/01/27 06:59:14;;;;;;;12.43;6.35;;;;;;;-1.66;77.73;96405.84;5023363;28;20033;-75
2021/01/27 07:02:07;;;;;;;11.35;5.90;;;;;;;-1.60;78.32;96398.50;5008659;28;20045;-74
2021/01/27 07:04:57;;;;;;;12.00;5.97;;;;;;;-1.58;77.94;96402.53;5017959;28;20044;-74
2021/01/27 07:07:33;;;;;;;12.13;6.38;;;;;;;-1.56;78.26;96405.78;5020626;28;20498;-74
2021/01/27 07:10:15;;;;;;;11.05;6.40;;;;;;;-1.58;77.66;96412.84;5024706;28;20056;-74
2021/01/27 07:12:46;;;;;;;13.80;6.25;;;;;;;-1.56;78.12;96410.13;5025009;28;20045;-74
2021/01/27 07:15:28;;;;;;;11.02;6.18;;;;;;;-1.53;78.17;96420.16;5028649;28;20069;-74
2021/01/27 07:18:03;;;;;;;9.02;5.63;;;;;;;-1.51;78.14;96418.22;5024708;28;20042;-74
2021/01/27 07:21:10;;;;;;;10.63;7.07;;;;;;;-1.50;78.09;96414.69;5022488;28;20038;-74
2021/01/27 07:23:44;;;;;;;8.75;6.57;;;;;;;-1.51;78.03;96424.19;5010495;28;20046;-74
2021/01/27 07:26:46;;;;;;;12.05;6.15;;;;;;;-1.53;78.02;96409.84;5020998;28;20046;-74
2021/01/27 07:29:19;;;;;;;9.80;6.00;;;;;;;-1.54;78.15;96408.22;5020171;28;20045;-74
2021/01/27 07:31:54;;;;;;;12.82;6.50;;;;;;;-1.52;78.35;96414.03;5022456;28;20053;-74
2021/01/27 07:34:31;;;;;;;8.23;5.60;;;;;;;-1.51;78.41;96418.22;4997635;28;20045;-73
2021/01/27 07:37:42;;;;;;;9.57;6.80;;;;;;;-1.46;79.33;96432.28;5003967;28;20048;-74
2021/01/27 07:40:35;;;;;;;9.15;6.10;;;;;;;-1.49;79.33;96421.44;4997000;28;20049;-75
2021/01/27 07:43:19;;;;;;;13.57;6.25;;;;;;;-1.51;79.05;96429.31;5017921;28;20034;-74
2021/01/27 07:45:52;;;;;;;8.55;6.10;;;;;;;-1.48;79.06;96435.94;5023313;28;20049;-73
2021/01/27 07:48:44;;;;;;;17.75;8.65;;;;;;;-1.45;79.45;96426.19;5022246;28;20382;-74
2021/01/27 07:51:32;;;;;;;13.20;6.90;;;;;;;-1.55;78.85;96429.75;4988678;28;20049;-74
2021/01/27 07:54:18;;;;;;;13.70;8.02;;;;;;;-1.62;79.58;96424.34;5018489;28;20049;-74
2021/01/27 07:57:04;;;;;;;14.32;8.70;;;;;;;-1.61;80.51;96435.47;5024340;28;20471;-74
2021/01/27 07:59:48;;;;;;;13.13;7.45;;;;;;;-1.71;80.03;96428.59;5001595;28;20057;-74
2021/01/27 08:02:20;;;;;;;10.07;6.72;;;;;;;-1.74;79.93;96421.19;5005289;28;20040;-74
2021/01/27 08:04:56;;;;;;;12.25;6.68;;;;;;;-1.72;80.16;96428.72;5004386;28;20033;-73
2021/01/27 08:07:30;;;;;;;11.73;7.90;;;;;;;-0.81;97.94;96428.75;5024492;28;20042;-74
2021/01/27 08:10:23;;;;;;;11.85;7.28;;;;;;;-0.32;88.20;96436.88;4993909;28;20052;-74
2021/01/27 08:13:00;;;;;;;16.85;11.35;;;;;;;-0.52;80.49;96433.69;5024232;28;20060;-74
2021/01/27 08:15:27;;;;;;;12.57;9.43;;;;;;;-0.71;79.26;96436.44;5019596;28;20057;-75
2021/01/27 08:18:00;;;;;;;19.58;12.55;;;;;;;-0.90;79.32;96427.88;5022196;28;20045;-74
2021/01/27 08:20:39;;;;;;;15.80;9.88;;;;;;;-1.03;79.67;96435.97;5022312;28;20045;-74
2021/01/27 08:23:19;;;;;;;16.60;10.23;;;;;;;-1.12;79.80;96439.41;5021142;28;20045;-74
2021/01/27 08:26:05;;;;;;;19.17;9.88;;;;;;;-1.19;80.66;96446.09;5026308;28;20490;-74
2021/01/27 08:28:37;;;;;;;17.25;9.68;;;;;;;-1.23;80.48;96450.69;5027393;28;20045;-74
2021/01/27 08:31:09;;;;;;;15.77;9.00;;;;;;;-1.19;80.36;96450.44;5026517;28;20053;-74
2021/01/27 08:33:42;;;;;;;15.00;7.88;;;;;;;-1.13;80.45;96444.72;5022927;28;20049;-74
2021/01/27 08:36:14;;;;;;;19.25;9.82;;;;;;;-1.18;80.76;96439.16;5018381;28;20041;-75
2021/01/27 08:39:10;;;;;;;16.52;8.45;;;;;;;-1.25;80.96;96434.59;5008907;28;20033;-74
2021/01/27 08:42:02;;;;;;;11.98;8.27;;;;;;;-1.30;81.34;96441.94;5022757;28;20383;-74
2021/01/27 08:44:40;;;;;;;16.02;8.13;;;;;;;-1.28;81.21;96437.47;5028067;28;20470;-74
2021/01/27 08:47:08;;;;;;;18.45;9.20;;;;;;;-1.31;81.07;96434.38;5024316;28;20398;-74
2021/01/27 08:49:41;;;;;;;17.35;8.45;;;;;;;-1.38;81.30;96435.91;5024906;28;20037;-74
2021/01/27 08:52:10;;;;;;;15.75;8.55;;;;;;;-1.49;82.04;96434.31;5026803;28;20486;-74
2021/01/27 08:54:51;;;;;;;29.48;11.82;;;;;;;-1.59;82.05;96424.09;5021069;28;20046;-74
2021/01/27 08:57:58;;;;;;;15.95;8.27;;;;;;;-1.63;82.99;96415.03;5001285;28;20057;-75
2021/01/27 09:00:37;;;;;;;10.98;7.93;;;;;;;-1.60;83.06;96421.66;5020471;28;20041;-74
2021/01/27 09:03:04;;;;;;;19.05;11.73;;;;;;;-1.59;82.47;96413.81;5020278;28;20038;-74
2021/01/27 09:05:39;;;;;;;16.70;10.93;;;;;;;-1.59;82.78;96410.44;5009025;28;20046;-74
2021/01/27 09:08:28;;;;;;;12.60;8.05;;;;;;;-1.59;83.75;96413.00;5020238;28;20407;-74
2021/01/27 09:11:17;;;;;;;17.88;10.45;;;;;;;-1.58;83.82;96417.97;5021098;28;20064;-74
2021/01/27 09:13:48;;;;;;;20.42;9.65;;;;;;;-1.57;83.03;96416.25;5020636;28;20060;-74
2021/01/27 09:16:21;;;;;;;15.60;10.03;;;;;;;-1.51;83.14;96413.91;5020188;28;20045;-75
2021/01/27 09:19:16;;;;;;;12.63;7.25;;;;;;;-1.46;83.37;96414.25;5021893;28;20042;-74
2021/01/27 09:22:04;;;;;;;11.18;6.85;;;;;;;-1.45;83.50;96412.50;5022245;28;20081;-74
2021/01/27 09:24:57;;;;;;;11.57;7.65;;;;;;;-1.51;83.49;96408.75;5007073;28;20069;-74
2021/01/27 09:27:44;;;;;;;14.70;7.63;;;;;;;-1.49;83.48;96406.03;5022982;28;20049;-74
2021/01/27 09:30:18;;;;;;;9.02;6.53;;;;;;;-1.47;82.79;96407.53;5005540;28;20496;-74
2021/01/27 09:32:51;;;;;;;12.68;7.03;;;;;;;-1.45;83.37;96404.78;5026154;28;20042;-74
2021/01/27 09:35:45;;;;;;;;;;;;;;;-1.51;85.25;96403.63;5030857;28;20052;-74
2021/01/27 09:38:21;;;;;;;11.38;6.22;;;;;;;-1.51;84.36;96402.78;5016122;28;19932;-74
2021/01/27 09:41:01;;;;;;;14.30;6.53;;;;;;;-1.47;84.21;96404.13;5009635;28;20041;-73
2021/01/27 09:43:33;;;;;;;11.07;6.45;;;;;;;-1.41;83.56;96393.25;5023935;28;20041;-74
2021/01/27 09:46:28;;;;;;;10.93;7.05;;;;;;;-1.36;84.13;96395.41;5019368;28;20053;-75
2021/01/27 09:49:14;;;;;;;;;;;;;;;-1.32;85.26;96386.47;5026807;28;20049;-74
2021/01/27 09:51:58;;;;;;;11.05;6.57;;;;;;;-1.29;83.79;96399.00;5028519;28;19910;-74
2021/01/27 09:54:31;;;;;;;16.10;6.70;;;;;;;-1.24;83.29;96391.66;5030230;28;20056;-75
2021/01/27 09:57:04;;;;;;;11.38;6.10;;;;;;;-1.18;83.24;96387.69;5008962;28;20120;-74
2021/01/27 09:59:40;;;;;;;10.57;5.38;;;;;;;-1.15;82.88;96388.22;5017929;28;20052;-75
2021/01/27 10:02:24;;;;;;;12.15;6.80;;;;;;;-1.14;83.11;96383.88;5008799;28;20504;-74
2021/01/27 10:04:57;;;;;;;15.93;5.60;;;;;;;-1.15;82.64;96382.28;5022460;28;20053;-74
2021/01/27 10:07:40;;;;;;;12.27;5.72;;;;;;;-1.22;83.66;96376.88;5026490;28;20045;-74
2021/01/27 10:10:23;;;;;;;6.65;4.45;;;;;;;-1.20;83.44;96372.41;5023140;28;20046;-74
2021/01/27 10:12:57;;;;;;;9.30;4.53;;;;;;;-1.07;83.28;96367.72;5024506;28;20512;-74
2021/01/27 10:15:34;;;;;;;8.77;4.45;;;;;;;-0.95;82.96;96363.16;5018486;28;20049;-75
2021/01/27 10:18:22;;;;;;;8.02;4.30;;;;;;;-0.92;82.58;96359.50;5009655;28;20407;-75
2021/01/27 10:20:52;;;;;;;8.95;4.32;;;;;;;-0.93;82.48;96357.84;5025394;28;20037;-74
2021/01/27 10:23:46;;;;;;;7.35;4.20;;;;;;;-0.93;82.78;96350.94;5024161;28;20042;-74
2021/01/27 10:26:36;;;;;;;12.40;4.20;;;;;;;-0.83;82.73;96349.09;5006473;28;20053;-74
2021/01/27 10:29:15;;;;;;;7.38;3.60;;;;;;;-0.75;82.47;96356.09;5023959;28;20049;-74
2021/01/27 10:31:54;;;;;;;6.22;4.13;;;;;;;-0.83;82.29;96354.25;5022362;28;20042;-74
2021/01/27 10:34:49;;;;;;;12.32;4.40;;;;;;;-0.85;82.92;96352.78;5020891;28;20046;-74
2021/01/27 10:37:28;;;;;;;6.93;4.35;;;;;;;-0.89;82.66;96352.25;5019728;28;20041;-74
2021/01/27 10:40:18;;;;;;;10.40;4.47;;;;;;;-0.98;83.15;96353.16;5023502;28;20060;-74
2021/01/27 10:43:02;;;;;;;6.55;3.80;;;;;;;-1.03;83.17;96353.59;5023337;28;20034;-74
2021/01/27 10:45:41;;;;;;;5.60;3.65;;;;;;;-0.97;83.52;96354.75;5023911;28;20038;-74
2021/01/27 10:48:26;;;;;;;10.35;3.97;;;;;;;-0.87;83.34;96354.69;5026656;28;20037;-74
2021/01/27 10:51:11;;;;;;;9.75;3.90;;;;;;;-0.75;82.96;96356.09;5028846;28;20042;-74
2021/01/27 10:53:50;;;;;;;6.65;4.00;;;;;;;-0.65;82.47;96345.69;5022245;28;20053;-74
2021/01/27 10:56:19;;;;;;;8.43;4.00;;;;;;;-0.49;82.22;96345.00;5021398;28;20492;-74
2021/01/27 10:58:56;;;;;;;5.65;3.63;;;;;;;-0.43;81.77;96342.63;5023269;28;20048;-74
2021/01/27 11:01:33;;;;;;;5.70;3.72;;;;;;;-0.43;81.52;96340.03;5021443;28;20050;-74
2021/01/27 11:04:11;;;;;;;5.93;3.47;;;;;;;-0.49;81.38;96329.53;5013209;28;20068;-74
2021/01/27 11:06:42;;;;;;;5.65;3.67;;;;;;;-0.53;81.28;96330.78;5019721;28;20038;-75
2021/01/27 11:09:08;;;;;;;8.60;4.05;;;;;;;-0.64;81.41;96322.34;5023338;28;20046;-74
2021/01/27 11:11:36;;;;;;;8.45;4.00;;;;;;;-0.69;81.55;96332.31;5024362;28;20048;-74
2021/01/27 11:14:04;;;;;;;6.00;4.07;;;;;;;-0.75;81.99;96332.91;5025793;28;20399;-74
2021/01/27 11:16:31;;;;;;;6.03;4.10;;;;;;;-0.76;82.03;96331.28;5027984;28;20493;-74
2021/01/27 11:18:57;;;;;;;6.45;4.18;;;;;;;-0.77;81.85;96331.44;5021848;28;20029;-74
2021/01/27 11:21:24;;;;;;;7.22;4.63;;;;;;;-0.73;82.13;96330.19;5022869;28;20050;-74
2021/01/27 11:23:52;;;;;;;10.77;4.93;;;;;;;-0.67;82.19;96329.59;5011387;28;20038;-74
2021/01/27 11:26:21;;;;;;;10.45;5.18;;;;;;;-0.62;81.87;96330.75;5021189;28;20041;-74
2021/01/27 11:28:49;;;;;;;7.63;4.82;;;;;;;-0.57;81.98;96324.31;5022428;28;20053;-76
2021/01/27 11:31:16;;;;;;;5.80;4.38;;;;;;;-0.51;81.75;96326.31;5024155;28;20068;-74
2021/01/27 11:33:45;;;;;;;8.73;5.32;;;;;;;-0.56;81.40;96320.81;5018121;28;20038;-74
2021/01/27 11:36:11;;;;;;;9.32;5.57;;;;;;;-0.65;81.40;96320.75;5020012;28;20156;-74
2021/01/27 11:38:38;;;;;;;7.50;5.15;;;;;;;-0.62;81.85;96327.38;5025900;28;20033;-74
2021/01/27 11:41:04;;;;;;;11.35;5.95;;;;;;;-0.62;81.78;96323.00;5022130;28;20046;-74
2021/01/27 11:43:30;;;;;;;11.35;5.30;;;;;;;-0.65;81.60;96322.50;5022222;28;20406;-74
2021/01/27 11:45:57;;;;;;;9.52;5.50;;;;;;;-0.56;81.95;96320.81;5019074;28;20046;-75
2021/01/27 11:48:23;;;;;;;9.13;5.72;;;;;;;-0.56;81.90;96307.94;5026755;28;20398;-74
2021/01/27 11:50:50;;;;;;;9.98;5.88;;;;;;;-0.54;82.03;96300.88;5024014;28;20481;-74
2021/01/27 11:53:16;;;;;;;9.10;5.25;;;;;;;-0.54;81.68;96304.25;4999356;28;20042;-75
2021/01/27 11:55:43;;;;;;;6.47;4.03;;;;;;;-0.56;81.63;96290.69;5026389;28;20049;-74
2021/01/27 11:58:09;;;;;;;8.20;4.07;;;;;;;-0.49;82.06;96293.47;5027334;28;20050;-74
2021/01/27 12:00:45;;;;;;;6.97;3.97;;;;;;;-0.42;81.78;96276.44;5017702;28;20041;-74
2021/01/27 12:03:12;;;;;;;9.23;4.60;;;;;;;-0.29;81.64;96278.63;5022141;28;20049;-74
2021/01/27 12:05:50;;;;;;;8.75;4.30;;;;;;;-0.12;81.66;96290.59;5090810;27;20374;-75
2021/01/27 12:08:16;;;;;;;9.63;4.65;;;;;;;-0.01;81.32;96292.09;5090437;28;20056;-74
2021/01/27 12:10:44;;;;;;;9.43;5.18;;;;;;;-0.02;80.89;96287.91;5090815;28;20049;-75